sensor_id;sensor_type;location;lat;lon;timestamp;pressure;altitude;pressure_sealevel;temperature;humidity
46392;BME280;32098;49.448;7.904;2023-02-12T00:02:01;100195.66;;;2.47;79.93
46392;BME280;32098;49.448;7.904;2023-02-12T00:04:27;100198.25;;;2.38;80.80
46392;BME280;32098;49.448;7.904;2023-02-12T00:06:54;100190.13;;;2.30;81.12
46392;BME280;32098;49.448;7.904;2023-02-12T00:09:20;100191.94;;;2.29;80.93
46392;BME280;32098;49.448;7.904;2023-02-12T00:11:47;100196.81;;;2.34;80.22
46392;BME280;32098;49.448;7.904;2023-02-12T00:14:13;100197.25;;;2.39;80.73
46392;BME280;32098;49.448;7.904;2023-02-12T00:16:40;100193.03;;;2.47;80.77
46392;BME280;32098;49.448;7.904;2023-02-12T00:19:06;100186.50;;;2.51;80.25
46392;BME280;32098;49.448;7.904;2023-02-12T00:21:33;100156.16;;;2.36;80.14
46392;BME280;32098;49.448;7.904;2023-02-12T00:24:01;100194.16;;;2.54;80.22
46392;BME280;32098;49.448;7.904;2023-02-12T00:26:28;100194.41;;;2.51;80.05
46392;BME280;32098;49.448;7.904;2023-02-12T00:28:55;100185.50;;;2.43;80.21
46392;BME280;32098;49.448;7.904;2023-02-12T00:31:27;100199.44;;;2.54;80.37
46392;BME280;32098;49.448;7.904;2023-02-12T00:33:58;100183.88;;;2.51;80.23
46392;BME280;32098;49.448;7.904;2023-02-12T00:36:27;100195.59;;;2.58;79.94
46392;BME280;32098;49.448;7.904;2023-02-12T00:38:54;100200.88;;;2.58;79.81
46392;BME280;32098;49.448;7.904;2023-02-12T00:41:23;100196.75;;;2.65;79.69
46392;BME280;32098;49.448;7.904;2023-02-12T00:43:50;100192.16;;;2.67;79.22
46392;BME280;32098;49.448;7.904;2023-02-12T00:46:17;100185.31;;;2.55;79.55
46392;BME280;32098;49.448;7.904;2023-02-12T00:48:44;100150.44;;;2.31;79.65
46392;BME280;32098;49.448;7.904;2023-02-12T00:51:11;100194.50;;;2.61;79.67
46392;BME280;32098;49.448;7.904;2023-02-12T00:53:38;100195.06;;;2.64;79.25
46392;BME280;32098;49.448;7.904;2023-02-12T00:56:06;100187.84;;;2.66;79.26
46392;BME280;32098;49.448;7.904;2023-02-12T00:58:32;100192.97;;;2.58;79.60
46392;BME280;32098;49.448;7.904;2023-02-12T01:00:59;100197.34;;;2.48;79.75
46392;BME280;32098;49.448;7.904;2023-02-12T01:03:25;100200.88;;;2.58;79.88
46392;BME280;32098;49.448;7.904;2023-02-12T01:05:52;100198.34;;;2.57;79.44
46392;BME280;32098;49.448;7.904;2023-02-12T01:08:20;100196.56;;;2.57;79.44
46392;BME280;32098;49.448;7.904;2023-02-12T01:10:53;100194.06;;;2.56;79.43
46392;BME280;32098;49.448;7.904;2023-02-12T01:13:20;100206.00;;;2.60;79.34
46392;BME280;32098;49.448;7.904;2023-02-12T01:15:46;100210.84;;;2.55;79.73
46392;BME280;32098;49.448;7.904;2023-02-12T01:18:13;100211.88;;;2.43;80.21
46392;BME280;32098;49.448;7.904;2023-02-12T01:20:42;100207.91;;;2.48;80.17
46392;BME280;32098;49.448;7.904;2023-02-12T01:23:08;100203.88;;;2.54;80.11
46392;BME280;32098;49.448;7.904;2023-02-12T01:25:37;100217.50;;;2.59;79.62
46392;BME280;32098;49.448;7.904;2023-02-12T01:28:04;100214.31;;;2.55;79.47
46392;BME280;32098;49.448;7.904;2023-02-12T01:30:30;100210.44;;;2.59;79.52
46392;BME280;32098;49.448;7.904;2023-02-12T01:32:56;100213.88;;;2.50;79.54
46392;BME280;32098;49.448;7.904;2023-02-12T01:35:23;100211.63;;;2.46;79.74
46392;BME280;32098;49.448;7.904;2023-02-12T01:37:49;100202.97;;;2.44;79.64
46392;BME280;32098;49.448;7.904;2023-02-12T01:40:16;100205.75;;;2.42;80.08
46392;BME280;32098;49.448;7.904;2023-02-12T01:42:44;100205.75;;;2.42;80.34
46392;BME280;32098;49.448;7.904;2023-02-12T01:47:42;100201.69;;;2.59;79.61
46392;BME280;32098;49.448;7.904;2023-02-12T01:50:12;100202.94;;;2.55;79.85
46392;BME280;32098;49.448;7.904;2023-02-12T01:52:45;100192.78;;;2.50;79.61
46392;BME280;32098;49.448;7.904;2023-02-12T01:55:14;100188.19;;;2.52;79.81
46392;BME280;32098;49.448;7.904;2023-02-12T01:57:43;100197.59;;;2.45;80.11
46392;BME280;32098;49.448;7.904;2023-02-12T02:00:14;100190.84;;;2.52;79.82
46392;BME280;32098;49.448;7.904;2023-02-12T02:02:48;100192.72;;;2.41;80.36
46392;BME280;32098;49.448;7.904;2023-02-12T02:05:23;100183.31;;;2.27;80.56
46392;BME280;32098;49.448;7.904;2023-02-12T02:07:52;100185.44;;;2.33;80.99
46392;BME280;32098;49.448;7.904;2023-02-12T02:10:19;100192.28;;;2.36;80.74
46392;BME280;32098;49.448;7.904;2023-02-12T02:12:45;100191.97;;;2.39;80.86
46392;BME280;32098;49.448;7.904;2023-02-12T02:15:31;100194.63;;;2.39;80.14
46392;BME280;32098;49.448;7.904;2023-02-12T02:26:49;100190.34;;;2.38;80.88
46392;BME280;32098;49.448;7.904;2023-02-12T02:32:24;100186.34;;;2.43;80.38
46392;BME280;32098;49.448;7.904;2023-02-12T02:34:58;100189.50;;;2.37;80.37
46392;BME280;32098;49.448;7.904;2023-02-12T02:37:31;100184.47;;;2.34;80.48
46392;BME280;32098;49.448;7.904;2023-02-12T02:40:17;100179.28;;;2.23;81.04
46392;BME280;32098;49.448;7.904;2023-02-12T02:42:57;100144.97;;;2.13;81.21
46392;BME280;32098;49.448;7.904;2023-02-12T02:45:48;100180.88;;;2.35;81.21
46392;BME280;32098;49.448;7.904;2023-02-12T02:48:22;100173.06;;;2.34;80.88
46392;BME280;32098;49.448;7.904;2023-02-12T02:51:01;100174.06;;;2.33;80.91
46392;BME280;32098;49.448;7.904;2023-02-12T02:53:37;100166.81;;;2.25;81.27
46392;BME280;32098;49.448;7.904;2023-02-12T02:56:07;100172.19;;;2.24;80.79
46392;BME280;32098;49.448;7.904;2023-02-12T02:59:08;100177.41;;;2.35;80.52
46392;BME280;32098;49.448;7.904;2023-02-12T03:01:42;100175.66;;;2.24;80.98
46392;BME280;32098;49.448;7.904;2023-02-12T03:07:11;100168.84;;;2.22;81.39
46392;BME280;32098;49.448;7.904;2023-02-12T03:09:42;100161.59;;;2.14;81.26
46392;BME280;32098;49.448;7.904;2023-02-12T03:12:21;100165.38;;;2.21;80.73
46392;BME280;32098;49.448;7.904;2023-02-12T03:14:53;100168.19;;;2.29;80.63
46392;BME280;32098;49.448;7.904;2023-02-12T03:17:27;100172.28;;;2.33;80.69
46392;BME280;32098;49.448;7.904;2023-02-12T03:20:10;100174.97;;;2.43;80.29
46392;BME280;32098;49.448;7.904;2023-02-12T03:22:42;100172.81;;;2.37;80.29
46392;BME280;32098;49.448;7.904;2023-02-12T03:25:15;100172.28;;;2.33;80.53
46392;BME280;32098;49.448;7.904;2023-02-12T03:27:48;100172.38;;;2.32;81.18
46392;BME280;32098;49.448;7.904;2023-02-12T03:30:17;100175.72;;;2.34;80.99
46392;BME280;32098;49.448;7.904;2023-02-12T03:33:09;100173.91;;;2.34;80.90
46392;BME280;32098;49.448;7.904;2023-02-12T03:36:00;100179.09;;;2.36;80.43
46392;BME280;32098;49.448;7.904;2023-02-12T03:38:35;100175.72;;;2.34;80.43
46392;BME280;32098;49.448;7.904;2023-02-12T03:41:08;100156.00;;;2.28;80.40
46392;BME280;32098;49.448;7.904;2023-02-12T03:46:18;100174.25;;;2.41;80.47
46392;BME280;32098;49.448;7.904;2023-02-12T03:53:51;100174.50;;;2.38;80.96
46392;BME280;32098;49.448;7.904;2023-02-12T03:56:23;100179.84;;;2.47;80.40
46392;BME280;32098;49.448;7.904;2023-02-12T03:58:50;100172.56;;;2.40;80.33
46392;BME280;32098;49.448;7.904;2023-02-12T04:01:18;100139.34;;;2.07;80.89
46392;BME280;32098;49.448;7.904;2023-02-12T04:03:45;100171.28;;;2.34;80.64
46392;BME280;32098;49.448;7.904;2023-02-12T04:06:24;100171.03;;;2.37;80.95
46392;BME280;32098;49.448;7.904;2023-02-12T04:08:52;100173.41;;;2.40;80.36
46392;BME280;32098;49.448;7.904;2023-02-12T04:14:12;100180.75;;;2.37;80.04
46392;BME280;32098;49.448;7.904;2023-02-12T04:16:47;100182.53;;;2.36;80.26
46392;BME280;32098;49.448;7.904;2023-02-12T04:20:10;100187.16;;;2.44;80.14
46392;BME280;32098;49.448;7.904;2023-02-12T04:25:06;100195.66;;;2.47;79.90
46392;BME280;32098;49.448;7.904;2023-02-12T04:27:46;100198.56;;;2.44;79.91
46392;BME280;32098;49.448;7.904;2023-02-12T04:30:37;100194.50;;;2.40;80.14
46392;BME280;32098;49.448;7.904;2023-02-12T04:33:10;100193.72;;;2.29;80.81
46392;BME280;32098;49.448;7.904;2023-02-12T04:35:50;100194.56;;;2.29;80.95
46392;BME280;32098;49.448;7.904;2023-02-12T04:38:24;100189.22;;;2.19;81.13
46392;BME280;32098;49.448;7.904;2023-02-12T04:40:52;100185.50;;;2.22;81.38
46392;BME280;32098;49.448;7.904;2023-02-12T04:43:45;100186.91;;;2.26;80.79
46392;BME280;32098;49.448;7.904;2023-02-12T04:46:11;100189.53;;;2.26;81.54
46392;BME280;32098;49.448;7.904;2023-02-12T04:48:49;100190.06;;;2.20;82.01
46392;BME280;32098;49.448;7.904;2023-02-12T04:51:16;100178.53;;;2.21;82.21
46392;BME280;32098;49.448;7.904;2023-02-12T04:53:43;100180.94;;;2.24;81.90
46392;BME280;32098;49.448;7.904;2023-02-12T04:56:10;100186.16;;;2.35;81.78
46392;BME280;32098;49.448;7.904;2023-02-12T04:58:39;100187.81;;;2.36;81.37
46392;BME280;32098;49.448;7.904;2023-02-12T05:01:07;100174.19;;;2.31;81.50
46392;BME280;32098;49.448;7.904;2023-02-12T05:03:35;100183.50;;;2.35;81.27
46392;BME280;32098;49.448;7.904;2023-02-12T05:06:04;100186.25;;;2.34;81.38
46392;BME280;32098;49.448;7.904;2023-02-12T05:08:31;100183.06;;;2.30;81.26
46392;BME280;32098;49.448;7.904;2023-02-12T05:11:03;100187.16;;;2.44;80.70
46392;BME280;32098;49.448;7.904;2023-02-12T05:13:30;100184.16;;;2.28;81.46
46392;BME280;32098;49.448;7.904;2023-02-12T05:15:57;100181.56;;;2.16;82.17
46392;BME280;32098;49.448;7.904;2023-02-12T05:18:24;100178.69;;;2.19;81.85
46392;BME280;32098;49.448;7.904;2023-02-12T05:20:58;100183.13;;;2.19;81.91
46392;BME280;32098;49.448;7.904;2023-02-12T05:23:26;100186.53;;;2.31;81.72
46392;BME280;32098;49.448;7.904;2023-02-12T05:25:53;100184.59;;;2.33;81.80
46392;BME280;32098;49.448;7.904;2023-02-12T05:28:20;100186.59;;;2.40;81.88
46392;BME280;32098;49.448;7.904;2023-02-12T05:30:47;100189.94;;;2.42;81.19
46392;BME280;32098;49.448;7.904;2023-02-12T05:33:13;100191.63;;;2.43;81.31
46392;BME280;32098;49.448;7.904;2023-02-12T05:35:40;100184.22;;;2.37;80.63
46392;BME280;32098;49.448;7.904;2023-02-12T05:38:07;100186.59;;;2.40;80.24
46392;BME280;32098;49.448;7.904;2023-02-12T05:40:33;100170.78;;;2.19;81.39
46392;BME280;32098;49.448;7.904;2023-02-12T05:43:01;100175.34;;;2.17;81.87
46392;BME280;32098;49.448;7.904;2023-02-12T05:45:27;100181.47;;;2.18;81.94
46392;BME280;32098;49.448;7.904;2023-02-12T05:47:55;100179.78;;;2.17;81.88
46392;BME280;32098;49.448;7.904;2023-02-12T05:50:22;100182.22;;;2.09;82.08
46392;BME280;32098;49.448;7.904;2023-02-12T05:53:00;100173.16;;;2.02;82.61
46392;BME280;32098;49.448;7.904;2023-02-12T05:55:27;100177.94;;;2.08;82.34
46392;BME280;32098;49.448;7.904;2023-02-12T05:57:54;100181.66;;;2.05;82.26
46392;BME280;32098;49.448;7.904;2023-02-12T06:00:21;100186.38;;;2.11;82.85
46392;BME280;32098;49.448;7.904;2023-02-12T06:02:48;100187.38;;;2.10;82.84
46392;BME280;32098;49.448;7.904;2023-02-12T06:05:14;100188.38;;;2.19;83.15
46392;BME280;32098;49.448;7.904;2023-02-12T06:07:41;100185.44;;;2.33;82.21
46392;BME280;32098;49.448;7.904;2023-02-12T06:10:09;100188.59;;;2.27;82.52
46392;BME280;32098;49.448;7.904;2023-02-12T06:12:35;100185.97;;;2.27;82.58
46392;BME280;32098;49.448;7.904;2023-02-12T06:15:02;100184.34;;;2.36;82.45
46392;BME280;32098;49.448;7.904;2023-02-12T06:17:29;100183.97;;;2.40;82.54
46392;BME280;32098;49.448;7.904;2023-02-12T06:19:55;100186.34;;;2.43;81.87
46392;BME280;32098;49.448;7.904;2023-02-12T06:22:21;100186.34;;;2.43;81.33
46392;BME280;32098;49.448;7.904;2023-02-12T06:24:48;100191.44;;;2.35;81.24
46392;BME280;32098;49.448;7.904;2023-02-12T06:27:14;100193.72;;;2.29;81.97
46392;BME280;32098;49.448;7.904;2023-02-12T06:29:41;100197.91;;;2.31;81.95
46392;BME280;32098;49.448;7.904;2023-02-12T06:32:08;100193.06;;;2.36;82.16
46392;BME280;32098;49.448;7.904;2023-02-12T06:34:39;100198.25;;;2.38;82.14
46392;BME280;32098;49.448;7.904;2023-02-12T06:37:06;100197.25;;;2.39;82.37
46392;BME280;32098;49.448;7.904;2023-02-12T06:39:33;100201.59;;;2.40;82.10
46392;BME280;32098;49.448;7.904;2023-02-12T06:42:00;100205.31;;;2.37;82.12
46392;BME280;32098;49.448;7.904;2023-02-12T06:44:26;100210.59;;;2.37;81.75
46392;BME280;32098;49.448;7.904;2023-02-12T06:46:53;100204.84;;;2.32;82.21
46392;BME280;32098;49.448;7.904;2023-02-12T06:49:19;100207.34;;;2.34;81.89
46392;BME280;32098;49.448;7.904;2023-02-12T06:51:46;100209.03;;;2.35;82.15
46392;BME280;32098;49.448;7.904;2023-02-12T06:54:14;100201.19;;;2.24;82.38
46392;BME280;32098;49.448;7.904;2023-02-12T06:56:41;100188.06;;;2.12;82.82
46392;BME280;32098;49.448;7.904;2023-02-12T06:59:12;100218.69;;;2.25;82.67
46392;BME280;32098;49.448;7.904;2023-02-12T07:01:39;100218.03;;;2.32;82.53
46392;BME280;32098;49.448;7.904;2023-02-12T07:04:06;100221.78;;;2.30;82.32
46392;BME280;32098;49.448;7.904;2023-02-12T07:06:34;100222.38;;;2.33;82.28
46392;BME280;32098;49.448;7.904;2023-02-12T07:09:02;100219.19;;;2.39;82.10
46392;BME280;32098;49.448;7.904;2023-02-12T07:11:32;100225.91;;;2.43;82.43
46392;BME280;32098;49.448;7.904;2023-02-12T07:14:03;100219.19;;;2.39;81.81
46392;BME280;32098;49.448;7.904;2023-02-12T07:16:30;100231.44;;;2.40;82.43
46392;BME280;32098;49.448;7.904;2023-02-12T07:18:57;100230.44;;;2.41;82.32
46392;BME280;32098;49.448;7.904;2023-02-12T07:21:24;100236.91;;;2.48;82.19
46392;BME280;32098;49.448;7.904;2023-02-12T07:23:51;100232.13;;;2.42;82.85
46392;BME280;32098;49.448;7.904;2023-02-12T07:26:19;100235.81;;;2.51;82.50
46392;BME280;32098;49.448;7.904;2023-02-12T07:28:47;100244.53;;;2.51;82.24
46392;BME280;32098;49.448;7.904;2023-02-12T07:31:16;100240.25;;;2.50;82.33
46392;BME280;32098;49.448;7.904;2023-02-12T07:33:44;100232.56;;;2.47;82.34
46392;BME280;32098;49.448;7.904;2023-02-12T07:36:13;100240.56;;;2.57;82.16
46392;BME280;32098;49.448;7.904;2023-02-12T07:38:40;100233.22;;;2.60;82.40
46392;BME280;32098;49.448;7.904;2023-02-12T07:41:15;100229.16;;;2.56;82.46
46392;BME280;32098;49.448;7.904;2023-02-12T07:43:44;100234.78;;;2.63;82.47
46392;BME280;32098;49.448;7.904;2023-02-12T07:46:13;100235.06;;;2.69;82.31
46392;BME280;32098;49.448;7.904;2023-02-12T07:48:42;100229.41;;;2.74;81.77
46392;BME280;32098;49.448;7.904;2023-02-12T07:51:11;100232.63;;;2.77;82.16
46392;BME280;32098;49.448;7.904;2023-02-12T07:53:38;100206.16;;;2.58;81.94
46392;BME280;32098;49.448;7.904;2023-02-12T07:56:10;100239.19;;;2.83;81.60
46392;BME280;32098;49.448;7.904;2023-02-12T07:58:37;100244.34;;;2.85;81.27
46392;BME280;32098;49.448;7.904;2023-02-12T08:03:45;100234.38;;;2.88;80.73
46392;BME280;32098;49.448;7.904;2023-02-12T08:06:15;100247.19;;;2.93;81.32
46392;BME280;32098;49.448;7.904;2023-02-12T08:08:42;100241.53;;;4.05;95.70
46392;BME280;32098;49.448;7.904;2023-02-12T08:11:10;100236.94;;;4.36;92.31
46392;BME280;32098;49.448;7.904;2023-02-12T08:13:37;100234.13;;;3.90;79.21
46392;BME280;32098;49.448;7.904;2023-02-12T08:16:07;100239.66;;;3.77;78.10
46392;BME280;32098;49.448;7.904;2023-02-12T08:18:35;100233.25;;;3.61;77.90
46392;BME280;32098;49.448;7.904;2023-02-12T08:21:09;100233.66;;;3.56;78.32
46392;BME280;32098;49.448;7.904;2023-02-12T08:23:36;100241.59;;;3.56;78.64
46392;BME280;32098;49.448;7.904;2023-02-12T08:26:11;100235.41;;;3.36;78.75
46392;BME280;32098;49.448;7.904;2023-02-12T08:28:41;100248.75;;;3.35;79.00
46392;BME280;32098;49.448;7.904;2023-02-12T08:31:11;100240.81;;;3.35;79.46
46392;BME280;32098;49.448;7.904;2023-02-12T08:33:38;100248.75;;;3.35;79.79
46392;BME280;32098;49.448;7.904;2023-02-12T08:36:06;100251.25;;;3.36;79.94
46392;BME280;32098;49.448;7.904;2023-02-12T08:38:32;100255.97;;;3.33;80.23
46392;BME280;32098;49.448;7.904;2023-02-12T08:41:04;100244.56;;;3.32;81.01
46392;BME280;32098;49.448;7.904;2023-02-12T08:43:31;100249.72;;;3.34;81.87
46392;BME280;32098;49.448;7.904;2023-02-12T08:46:25;100252.66;;;3.40;81.89
46392;BME280;32098;49.448;7.904;2023-02-12T08:48:57;100251.81;;;3.40;81.42
46392;BME280;32098;49.448;7.904;2023-02-12T08:51:26;100259.59;;;3.41;82.09
46392;BME280;32098;49.448;7.904;2023-02-12T08:53:56;100250.47;;;3.45;82.78
46392;BME280;32098;49.448;7.904;2023-02-12T08:56:23;100250.88;;;3.51;82.95
46392;BME280;32098;49.448;7.904;2023-02-12T08:58:51;100248.38;;;3.49;83.19
46392;BME280;32098;49.448;7.904;2023-02-12T09:01:22;100257.44;;;3.56;82.58
46392;BME280;32098;49.448;7.904;2023-02-12T09:03:50;100256.78;;;3.64;83.61
46392;BME280;32098;49.448;7.904;2023-02-12T09:06:19;100254.94;;;3.64;83.71
46392;BME280;32098;49.448;7.904;2023-02-12T09:08:47;100252.72;;;3.60;85.53
46392;BME280;32098;49.448;7.904;2023-02-12T09:11:16;100257.16;;;3.59;87.11
46392;BME280;32098;49.448;7.904;2023-02-12T09:13:44;100262.75;;;3.66;87.59
46392;BME280;32098;49.448;7.904;2023-02-12T09:16:12;100258.31;;;3.66;88.13
46392;BME280;32098;49.448;7.904;2023-02-12T09:18:39;100266.09;;;3.77;87.45
46392;BME280;32098;49.448;7.904;2023-02-12T09:21:08;100260.19;;;3.55;89.46
46392;BME280;32098;49.448;7.904;2023-02-12T09:23:35;100257.91;;;3.31;91.62
46392;BME280;32098;49.448;7.904;2023-02-12T09:26:06;100249.34;;;3.48;91.63
46392;BME280;32098;49.448;7.904;2023-02-12T09:28:34;100258.91;;;3.39;92.26
46392;BME280;32098;49.448;7.904;2023-02-12T09:31:08;100257.97;;;3.50;91.49
46392;BME280;32098;49.448;7.904;2023-02-12T09:33:35;100261.63;;;3.59;91.59
46392;BME280;32098;49.448;7.904;2023-02-12T09:36:03;100258.97;;;3.59;91.63
46392;BME280;32098;49.448;7.904;2023-02-12T09:38:30;100260.75;;;3.49;92.28
46392;BME280;32098;49.448;7.904;2023-02-12T09:46:44;100259.91;;;3.48;92.16
46392;BME280;32098;49.448;7.904;2023-02-12T09:52:27;100266.94;;;3.78;90.96
46392;BME280;32098;49.448;7.904;2023-02-12T09:54:55;100271.28;;;3.98;90.49
46392;BME280;32098;49.448;7.904;2023-02-12T09:57:32;100268.50;;;3.90;89.84
46392;BME280;32098;49.448;7.904;2023-02-12T10:00:07;100267.38;;;3.92;89.39
46392;BME280;32098;49.448;7.904;2023-02-12T10:02:38;100269.06;;;3.93;89.26
46392;BME280;32098;49.448;7.904;2023-02-12T10:05:27;100273.09;;;3.97;88.57
46392;BME280;32098;49.448;7.904;2023-02-12T10:10:50;100253.88;;;4.24;87.83
46392;BME280;32098;49.448;7.904;2023-02-12T10:16:11;100274.22;;;4.52;86.38
46392;BME280;32098;49.448;7.904;2023-02-12T10:21:27;100265.28;;;4.72;84.76
46392;BME280;32098;49.448;7.904;2023-02-12T10:26:49;100268.06;;;4.71;84.04
46392;BME280;32098;49.448;7.904;2023-02-12T10:29:21;100264.59;;;4.61;84.64
46392;BME280;32098;49.448;7.904;2023-02-12T10:31:56;100266.38;;;4.80;83.72
46392;BME280;32098;49.448;7.904;2023-02-12T10:34:32;100262.47;;;4.84;83.19
46392;BME280;32098;49.448;7.904;2023-02-12T10:37:04;100261.34;;;4.86;82.95
46392;BME280;32098;49.448;7.904;2023-02-12T10:39:38;100260.34;;;4.87;83.08
46392;BME280;32098;49.448;7.904;2023-02-12T10:42:20;100261.34;;;4.86;82.82
46392;BME280;32098;49.448;7.904;2023-02-12T10:44:50;100248.78;;;4.88;82.42
46392;BME280;32098;49.448;7.904;2023-02-12T10:47:19;100254.91;;;4.98;82.47
46392;BME280;32098;49.448;7.904;2023-02-12T10:49:55;100248.72;;;5.07;81.44
46392;BME280;32098;49.448;7.904;2023-02-12T10:54:49;100250.94;;;5.12;81.17
46392;BME280;32098;49.448;7.904;2023-02-12T10:57:37;100243.72;;;5.04;80.95
46392;BME280;32098;49.448;7.904;2023-02-12T11:00:29;100248.22;;;4.94;81.30
46392;BME280;32098;49.448;7.904;2023-02-12T11:05:29;100236.81;;;4.84;81.56
46392;BME280;32098;49.448;7.904;2023-02-12T11:07:56;100248.13;;;4.76;81.84
46392;BME280;32098;49.448;7.904;2023-02-12T11:10:39;100243.13;;;4.73;82.12
46392;BME280;32098;49.448;7.904;2023-02-12T11:13:25;100234.56;;;4.99;81.08
46392;BME280;32098;49.448;7.904;2023-02-12T11:15:53;100234.28;;;4.92;81.61
46392;BME280;32098;49.448;7.904;2023-02-12T11:18:23;100239.19;;;4.87;81.32
46392;BME280;32098;49.448;7.904;2023-02-12T11:20:55;100229.09;;;5.00;80.27
46392;BME280;32098;49.448;7.904;2023-02-12T11:23:24;100223.56;;;4.84;81.18
46392;BME280;32098;49.448;7.904;2023-02-12T11:26:03;100220.88;;;5.03;81.08
46392;BME280;32098;49.448;7.904;2023-02-12T11:28:32;100219.47;;;4.99;80.72
46392;BME280;32098;49.448;7.904;2023-02-12T11:31:24;100206.59;;;4.77;80.91
46392;BME280;32098;49.448;7.904;2023-02-12T11:34:14;100216.66;;;5.10;80.19
46392;BME280;32098;49.448;7.904;2023-02-12T11:36:49;100211.59;;;4.90;80.68
46392;BME280;32098;49.448;7.904;2023-02-12T11:39:25;100211.94;;;5.04;79.81
46392;BME280;32098;49.448;7.904;2023-02-12T11:41:55;100196.13;;;4.85;80.96
46392;BME280;32098;49.448;7.904;2023-02-12T11:44:28;100203.19;;;4.94;80.54
46392;BME280;32098;49.448;7.904;2023-02-12T11:47:04;100213.66;;;4.96;80.48
46392;BME280;32098;49.448;7.904;2023-02-12T11:49:39;100213.50;;;4.97;80.30
46392;BME280;32098;49.448;7.904;2023-02-12T11:52:31;100211.47;;;4.91;81.02
46392;BME280;32098;49.448;7.904;2023-02-12T11:55:02;100202.06;;;5.06;79.90
46392;BME280;32098;49.448;7.904;2023-02-12T11:57:38;100199.50;;;5.14;79.82
46392;BME280;32098;49.448;7.904;2023-02-12T12:00:17;100205.00;;;5.03;79.71
46392;BME280;32098;49.448;7.904;2023-02-12T12:03:03;100194.84;;;5.26;79.23
46392;BME280;32098;49.448;7.904;2023-02-12T12:05:37;100192.25;;;5.16;79.08
46392;BME280;32098;49.448;7.904;2023-02-12T12:08:13;100206.63;;;5.14;79.14
46392;BME280;32098;49.448;7.904;2023-02-12T12:11:14;100199.41;;;5.06;79.98
46392;BME280;32098;49.448;7.904;2023-02-12T12:13:52;100187.63;;;5.28;79.77
46392;BME280;32098;49.448;7.904;2023-02-12T12:16:27;100184.13;;;5.27;78.76
46392;BME280;32098;49.448;7.904;2023-02-12T12:19:20;100170.16;;;5.25;78.74
46392;BME280;32098;49.448;7.904;2023-02-12T12:31:02;100179.25;;;4.96;79.36
46392;BME280;32098;49.448;7.904;2023-02-12T12:33:59;100182.22;;;5.10;79.82
46392;BME280;32098;49.448;7.904;2023-02-12T12:36:47;100174.91;;;5.22;79.20
46392;BME280;32098;49.448;7.904;2023-02-12T12:39:34;100171.44;;;5.31;78.85
46392;BME280;32098;49.448;7.904;2023-02-12T12:50:28;100169.41;;;5.43;78.98
46392;BME280;32098;49.448;7.904;2023-02-12T12:53:09;100158.34;;;5.20;79.04
46392;BME280;32098;49.448;7.904;2023-02-12T12:58:38;100162.38;;;5.24;78.37
46392;BME280;32098;49.448;7.904;2023-02-12T13:01:25;100163.31;;;5.32;78.90
46392;BME280;32098;49.448;7.904;2023-02-12T13:04:30;100159.56;;;5.25;78.55
46392;BME280;32098;49.448;7.904;2023-02-12T13:09:57;100148.72;;;5.28;78.77
46392;BME280;32098;49.448;7.904;2023-02-12T13:12:49;100151.75;;;5.33;78.39
46392;BME280;32098;49.448;7.904;2023-02-12T13:15:44;100157.50;;;5.19;79.08
46392;BME280;32098;49.448;7.904;2023-02-12T13:23:46;100152.88;;;4.94;80.19
46392;BME280;32098;49.448;7.904;2023-02-12T13:26:21;100144.19;;;5.11;80.31
46392;BME280;32098;49.448;7.904;2023-02-12T13:28:57;100149.63;;;5.10;80.23
46392;BME280;32098;49.448;7.904;2023-02-12T13:31:28;100148.19;;;5.43;78.75
46392;BME280;32098;49.448;7.904;2023-02-12T13:34:04;100155.47;;;5.41;78.21
46392;BME280;32098;49.448;7.904;2023-02-12T13:36:35;100151.28;;;5.11;79.93
46392;BME280;32098;49.448;7.904;2023-02-12T13:39:14;100140.47;;;5.31;79.35
46392;BME280;32098;49.448;7.904;2023-02-12T13:41:51;100145.72;;;5.41;78.42
46392;BME280;32098;49.448;7.904;2023-02-12T13:44:24;100133.38;;;5.50;77.69
46392;BME280;32098;49.448;7.904;2023-02-12T13:52:59;100132.16;;;5.62;77.11
46392;BME280;32098;49.448;7.904;2023-02-12T13:55:10;100131.00;;;5.64;76.94
46392;BME280;32098;49.448;7.904;2023-02-12T13:57:39;100135.56;;;5.72;76.54
46392;BME280;32098;49.448;7.904;2023-02-12T14:03:26;100120.50;;;5.55;77.41
46392;BME280;32098;49.448;7.904;2023-02-12T14:06:14;100129.66;;;5.15;79.47
46392;BME280;32098;49.448;7.904;2023-02-12T14:08:47;100120.34;;;5.38;79.17
46392;BME280;32098;49.448;7.904;2023-02-12T14:11:18;100119.13;;;5.51;77.46
46392;BME280;32098;49.448;7.904;2023-02-12T14:14:12;100114.44;;;5.62;77.21
46392;BME280;32098;49.448;7.904;2023-02-12T14:16:48;100115.44;;;5.79;76.17
46392;BME280;32098;49.448;7.904;2023-02-12T14:24:55;100116.47;;;6.03;75.42
46392;BME280;32098;49.448;7.904;2023-02-12T14:27:28;100115.19;;;5.90;75.69
46392;BME280;32098;49.448;7.904;2023-02-12T14:30:29;100117.03;;;5.36;78.36
46392;BME280;32098;49.448;7.904;2023-02-12T14:33:07;100110.06;;;5.71;77.03
46392;BME280;32098;49.448;7.904;2023-02-12T14:35:39;100109.88;;;5.55;77.71
46392;BME280;32098;49.448;7.904;2023-02-12T14:41:33;100113.00;;;5.68;76.13
46392;BME280;32098;49.448;7.904;2023-02-12T14:46:57;100098.41;;;5.64;75.94
46392;BME280;32098;49.448;7.904;2023-02-12T14:49:33;100099.53;;;5.79;75.52
46392;BME280;32098;49.448;7.904;2023-02-12T14:52:06;100092.53;;;5.95;75.37
46392;BME280;32098;49.448;7.904;2023-02-12T14:54:49;100087.16;;;5.70;75.66
46392;BME280;32098;49.448;7.904;2023-02-12T15:02:46;100100.44;;;5.52;75.62
46392;BME280;32098;49.448;7.904;2023-02-12T15:05:21;100095.66;;;5.56;76.45
46392;BME280;32098;49.448;7.904;2023-02-12T15:10:29;100099.66;;;5.77;75.03
46392;BME280;32098;49.448;7.904;2023-02-12T15:13:12;100090.47;;;5.89;74.90
46392;BME280;32098;49.448;7.904;2023-02-12T15:15:48;100096.09;;;6.04;74.85
46392;BME280;32098;49.448;7.904;2023-02-12T15:18:41;100094.59;;;5.84;75.44
46392;BME280;32098;49.448;7.904;2023-02-12T15:21:19;100084.69;;;5.68;75.93
46392;BME280;32098;49.448;7.904;2023-02-12T15:24:09;100092.72;;;5.76;75.49